sensor_id;sensor_type;location;lat;lon;timestamp;P1;durP1;ratioP1;P2;durP2;ratioP2
49123;SDS011;48506;48.202;16.274;2022-12-20T00:00:16;60.83;;;20.83;;
49123;SDS011;48506;48.202;16.274;2022-12-20T00:02:43;52.70;;;20.65;;
49123;SDS011;48506;48.202;16.274;2022-12-20T00:05:09;52.38;;;18.42;;
49123;SDS011;48506;48.202;16.274;2022-12-20T00:07:35;55.97;;;19.67;;
49123;SDS011;48506;48.202;16.274;2022-12-20T00:10:01;54.72;;;20.15;;
49123;SDS011;48506;48.202;16.274;2022-12-20T00:12:27;63.55;;;22.85;;
49123;SDS011;48506;48.202;16.274;2022-12-20T00:14:53;52.85;;;19.33;;
49123;SDS011;48506;48.202;16.274;2022-12-20T00:17:19;50.50;;;17.63;;
49123;SDS011;48506;48.202;16.274;2022-12-20T00:19:45;60.22;;;21.35;;
49123;SDS011;48506;48.202;16.274;2022-12-20T00:22:11;58.40;;;22.60;;
49123;SDS011;48506;48.202;16.274;2022-12-20T00:24:37;57.05;;;20.42;;
49123;SDS011;48506;48.202;16.274;2022-12-20T00:27:03;59.70;;;23.00;;
49123;SDS011;48506;48.202;16.274;2022-12-20T00:29:29;53.28;;;20.85;;
49123;SDS011;48506;48.202;16.274;2022-12-20T00:31:55;74.78;;;21.77;;
49123;SDS011;48506;48.202;16.274;2022-12-20T00:34:21;68.78;;;22.35;;
49123;SDS011;48506;48.202;16.274;2022-12-20T00:36:47;71.45;;;26.92;;
49123;SDS011;48506;48.202;16.274;2022-12-20T00:39:13;64.72;;;22.05;;
49123;SDS011;48506;48.202;16.274;2022-12-20T00:41:38;59.15;;;22.60;;
49123;SDS011;48506;48.202;16.274;2022-12-20T00:44:04;60.10;;;24.60;;
49123;SDS011;48506;48.202;16.274;2022-12-20T00:46:30;68.78;;;23.65;;
49123;SDS011;48506;48.202;16.274;2022-12-20T00:48:58;66.45;;;21.67;;
49123;SDS011;48506;48.202;16.274;2022-12-20T00:51:26;73.85;;;22.25;;
49123;SDS011;48506;48.202;16.274;2022-12-20T00:53:53;57.15;;;18.98;;
49123;SDS011;48506;48.202;16.274;2022-12-20T00:56:19;68.45;;;20.98;;
49123;SDS011;48506;48.202;16.274;2022-12-20T00:58:46;65.95;;;24.15;;
49123;SDS011;48506;48.202;16.274;2022-12-20T01:01:14;70.75;;;25.30;;
49123;SDS011;48506;48.202;16.274;2022-12-20T01:03:45;66.70;;;24.02;;
49123;SDS011;48506;48.202;16.274;2022-12-20T01:06:11;62.35;;;20.98;;
49123;SDS011;48506;48.202;16.274;2022-12-20T01:08:37;74.68;;;24.55;;
49123;SDS011;48506;48.202;16.274;2022-12-20T01:11:06;71.75;;;24.40;;
49123;SDS011;48506;48.202;16.274;2022-12-20T01:13:38;57.10;;;22.15;;
49123;SDS011;48506;48.202;16.274;2022-12-20T01:16:06;65.90;;;22.88;;
49123;SDS011;48506;48.202;16.274;2022-12-20T01:18:34;60.72;;;22.52;;
49123;SDS011;48506;48.202;16.274;2022-12-20T01:21:05;69.55;;;26.92;;
49123;SDS011;48506;48.202;16.274;2022-12-20T01:23:34;69.70;;;23.05;;
49123;SDS011;48506;48.202;16.274;2022-12-20T01:26:01;68.18;;;21.60;;
49123;SDS011;48506;48.202;16.274;2022-12-20T01:28:29;61.35;;;22.67;;
49123;SDS011;48506;48.202;16.274;2022-12-20T01:30:56;73.15;;;24.60;;
49123;SDS011;48506;48.202;16.274;2022-12-20T01:33:22;60.80;;;23.60;;
49123;SDS011;48506;48.202;16.274;2022-12-20T01:35:58;79.47;;;25.60;;
49123;SDS011;48506;48.202;16.274;2022-12-20T01:38:26;64.90;;;21.88;;
49123;SDS011;48506;48.202;16.274;2022-12-20T01:40:53;70.07;;;23.77;;
49123;SDS011;48506;48.202;16.274;2022-12-20T01:43:21;72.28;;;26.20;;
49123;SDS011;48506;48.202;16.274;2022-12-20T01:45:49;75.75;;;26.58;;
49123;SDS011;48506;48.202;16.274;2022-12-20T01:48:23;75.63;;;25.70;;
49123;SDS011;48506;48.202;16.274;2022-12-20T01:50:50;72.22;;;23.30;;
49123;SDS011;48506;48.202;16.274;2022-12-20T01:53:17;76.47;;;28.00;;
49123;SDS011;48506;48.202;16.274;2022-12-20T01:55:47;59.55;;;18.80;;
49123;SDS011;48506;48.202;16.274;2022-12-20T01:58:14;76.63;;;26.33;;
49123;SDS011;48506;48.202;16.274;2022-12-20T02:00:42;73.38;;;25.65;;
49123;SDS011;48506;48.202;16.274;2022-12-20T02:03:08;78.15;;;25.75;;
49123;SDS011;48506;48.202;16.274;2022-12-20T02:05:38;45.10;;;17.83;;
49123;SDS011;48506;48.202;16.274;2022-12-20T02:08:06;71.72;;;25.85;;
49123;SDS011;48506;48.202;16.274;2022-12-20T02:10:56;69.40;;;22.52;;
49123;SDS011;48506;48.202;16.274;2022-12-20T02:13:39;60.40;;;23.83;;
49123;SDS011;48506;48.202;16.274;2022-12-20T02:16:27;57.93;;;21.00;;
49123;SDS011;48506;48.202;16.274;2022-12-20T02:18:59;71.03;;;22.85;;
49123;SDS011;48506;48.202;16.274;2022-12-20T02:31:59;58.75;;;22.17;;
49123;SDS011;48506;48.202;16.274;2022-12-20T02:34:37;61.78;;;21.10;;
49123;SDS011;48506;48.202;16.274;2022-12-20T02:37:04;69.57;;;20.80;;
49123;SDS011;48506;48.202;16.274;2022-12-20T02:39:30;61.45;;;20.50;;
49123;SDS011;48506;48.202;16.274;2022-12-20T02:42:00;49.90;;;19.98;;
49123;SDS011;48506;48.202;16.274;2022-12-20T02:44:30;58.53;;;22.00;;
49123;SDS011;48506;48.202;16.274;2022-12-20T02:47:19;53.97;;;19.65;;
49123;SDS011;48506;48.202;16.274;2022-12-20T02:49:50;55.65;;;20.75;;
49123;SDS011;48506;48.202;16.274;2022-12-20T02:52:17;57.92;;;19.92;;
49123;SDS011;48506;48.202;16.274;2022-12-20T02:54:49;56.97;;;20.35;;
49123;SDS011;48506;48.202;16.274;2022-12-20T02:57:17;59.25;;;18.98;;
49123;SDS011;48506;48.202;16.274;2022-12-20T02:59:48;40.25;;;16.15;;
49123;SDS011;48506;48.202;16.274;2022-12-20T03:02:25;51.15;;;19.42;;
49123;SDS011;48506;48.202;16.274;2022-12-20T03:04:52;58.65;;;21.60;;
49123;SDS011;48506;48.202;16.274;2022-12-20T03:07:19;58.30;;;21.13;;
49123;SDS011;48506;48.202;16.274;2022-12-20T03:09:45;56.53;;;20.35;;
49123;SDS011;48506;48.202;16.274;2022-12-20T03:12:12;56.05;;;20.23;;
49123;SDS011;48506;48.202;16.274;2022-12-20T03:14:40;56.40;;;18.27;;
49123;SDS011;48506;48.202;16.274;2022-12-20T03:17:06;53.55;;;19.30;;
49123;SDS011;48506;48.202;16.274;2022-12-20T03:19:33;52.95;;;20.20;;
49123;SDS011;48506;48.202;16.274;2022-12-20T03:21:59;51.28;;;22.55;;
49123;SDS011;48506;48.202;16.274;2022-12-20T03:24:25;47.58;;;20.73;;
49123;SDS011;48506;48.202;16.274;2022-12-20T03:26:51;59.03;;;20.27;;
49123;SDS011;48506;48.202;16.274;2022-12-20T03:29:17;73.18;;;22.52;;
49123;SDS011;48506;48.202;16.274;2022-12-20T03:31:43;57.13;;;21.42;;
49123;SDS011;48506;48.202;16.274;2022-12-20T03:34:09;58.30;;;20.48;;
49123;SDS011;48506;48.202;16.274;2022-12-20T03:36:35;62.38;;;20.05;;
49123;SDS011;48506;48.202;16.274;2022-12-20T03:39:02;59.67;;;19.92;;
49123;SDS011;48506;48.202;16.274;2022-12-20T03:41:28;67.63;;;20.77;;
49123;SDS011;48506;48.202;16.274;2022-12-20T03:43:54;67.22;;;24.63;;
49123;SDS011;48506;48.202;16.274;2022-12-20T03:46:20;56.20;;;22.10;;
49123;SDS011;48506;48.202;16.274;2022-12-20T03:48:45;61.05;;;23.00;;
49123;SDS011;48506;48.202;16.274;2022-12-20T03:51:11;58.22;;;20.75;;
49123;SDS011;48506;48.202;16.274;2022-12-20T03:53:37;55.25;;;22.58;;
49123;SDS011;48506;48.202;16.274;2022-12-20T03:56:03;69.68;;;23.55;;
49123;SDS011;48506;48.202;16.274;2022-12-20T03:58:29;64.07;;;22.15;;
49123;SDS011;48506;48.202;16.274;2022-12-20T04:00:56;60.88;;;20.17;;
49123;SDS011;48506;48.202;16.274;2022-12-20T04:03:22;62.20;;;20.63;;
49123;SDS011;48506;48.202;16.274;2022-12-20T04:05:47;53.25;;;19.48;;
49123;SDS011;48506;48.202;16.274;2022-12-20T04:08:13;60.05;;;19.67;;
49123;SDS011;48506;48.202;16.274;2022-12-20T04:10:39;54.97;;;20.88;;
49123;SDS011;48506;48.202;16.274;2022-12-20T04:13:23;59.88;;;20.77;;
49123;SDS011;48506;48.202;16.274;2022-12-20T04:15:49;53.85;;;19.77;;
49123;SDS011;48506;48.202;16.274;2022-12-20T04:18:15;62.03;;;22.38;;
49123;SDS011;48506;48.202;16.274;2022-12-20T04:20:41;60.65;;;20.40;;
49123;SDS011;48506;48.202;16.274;2022-12-20T04:23:07;59.97;;;26.02;;
49123;SDS011;48506;48.202;16.274;2022-12-20T04:25:33;52.10;;;21.48;;
49123;SDS011;48506;48.202;16.274;2022-12-20T04:27:58;66.35;;;23.05;;
49123;SDS011;48506;48.202;16.274;2022-12-20T04:30:24;67.78;;;20.70;;
49123;SDS011;48506;48.202;16.274;2022-12-20T04:32:50;64.07;;;22.17;;
49123;SDS011;48506;48.202;16.274;2022-12-20T04:35:19;63.47;;;20.08;;
49123;SDS011;48506;48.202;16.274;2022-12-20T04:37:45;59.00;;;19.98;;
49123;SDS011;48506;48.202;16.274;2022-12-20T04:40:14;55.50;;;20.85;;
49123;SDS011;48506;48.202;16.274;2022-12-20T04:42:40;58.38;;;21.73;;
49123;SDS011;48506;48.202;16.274;2022-12-20T04:45:07;58.42;;;20.70;;
49123;SDS011;48506;48.202;16.274;2022-12-20T04:47:34;62.70;;;20.20;;
49123;SDS011;48506;48.202;16.274;2022-12-20T04:50:00;61.35;;;22.15;;
49123;SDS011;48506;48.202;16.274;2022-12-20T04:52:25;67.03;;;21.92;;
49123;SDS011;48506;48.202;16.274;2022-12-20T04:55:10;55.80;;;22.08;;
49123;SDS011;48506;48.202;16.274;2022-12-20T04:57:36;57.47;;;20.85;;
49123;SDS011;48506;48.202;16.274;2022-12-20T05:00:02;58.30;;;22.08;;
49123;SDS011;48506;48.202;16.274;2022-12-20T05:02:28;58.50;;;23.40;;
49123;SDS011;48506;48.202;16.274;2022-12-20T05:04:54;69.18;;;21.58;;
49123;SDS011;48506;48.202;16.274;2022-12-20T05:07:20;59.08;;;24.08;;
49123;SDS011;48506;48.202;16.274;2022-12-20T05:09:46;52.58;;;19.08;;
49123;SDS011;48506;48.202;16.274;2022-12-20T05:12:12;60.90;;;20.67;;
49123;SDS011;48506;48.202;16.274;2022-12-20T05:14:37;63.75;;;23.23;;
49123;SDS011;48506;48.202;16.274;2022-12-20T05:17:03;50.80;;;20.52;;
49123;SDS011;48506;48.202;16.274;2022-12-20T05:19:29;62.28;;;22.75;;
49123;SDS011;48506;48.202;16.274;2022-12-20T05:21:55;61.20;;;21.23;;
49123;SDS011;48506;48.202;16.274;2022-12-20T05:24:39;55.45;;;20.35;;
49123;SDS011;48506;48.202;16.274;2022-12-20T05:27:24;66.90;;;22.05;;
49123;SDS011;48506;48.202;16.274;2022-12-20T05:29:49;65.05;;;24.55;;
49123;SDS011;48506;48.202;16.274;2022-12-20T05:32:15;65.35;;;23.33;;
49123;SDS011;48506;48.202;16.274;2022-12-20T05:34:41;61.55;;;23.35;;
49123;SDS011;48506;48.202;16.274;2022-12-20T05:37:07;65.75;;;22.88;;
49123;SDS011;48506;48.202;16.274;2022-12-20T05:39:33;74.43;;;25.30;;
49123;SDS011;48506;48.202;16.274;2022-12-20T05:41:59;65.90;;;23.83;;
49123;SDS011;48506;48.202;16.274;2022-12-20T05:44:24;64.90;;;21.50;;
49123;SDS011;48506;48.202;16.274;2022-12-20T05:46:50;68.70;;;26.05;;
49123;SDS011;48506;48.202;16.274;2022-12-20T05:49:16;67.95;;;23.20;;
49123;SDS011;48506;48.202;16.274;2022-12-20T05:51:42;65.55;;;25.92;;
49123;SDS011;48506;48.202;16.274;2022-12-20T05:54:08;65.93;;;24.58;;
49123;SDS011;48506;48.202;16.274;2022-12-20T05:56:35;66.90;;;20.67;;
49123;SDS011;48506;48.202;16.274;2022-12-20T05:59:01;65.25;;;23.45;;
49123;SDS011;48506;48.202;16.274;2022-12-20T06:01:27;66.15;;;23.90;;
49123;SDS011;48506;48.202;16.274;2022-12-20T06:03:53;70.28;;;24.98;;
49123;SDS011;48506;48.202;16.274;2022-12-20T06:06:20;65.47;;;23.08;;
49123;SDS011;48506;48.202;16.274;2022-12-20T06:08:46;72.72;;;26.13;;
49123;SDS011;48506;48.202;16.274;2022-12-20T06:11:13;70.43;;;26.33;;
49123;SDS011;48506;48.202;16.274;2022-12-20T06:13:39;68.47;;;24.58;;
49123;SDS011;48506;48.202;16.274;2022-12-20T06:16:05;70.70;;;23.45;;
49123;SDS011;48506;48.202;16.274;2022-12-20T06:18:31;76.20;;;23.75;;
49123;SDS011;48506;48.202;16.274;2022-12-20T06:20:57;64.72;;;25.58;;
49123;SDS011;48506;48.202;16.274;2022-12-20T06:23:23;80.00;;;27.35;;
49123;SDS011;48506;48.202;16.274;2022-12-20T06:25:49;61.00;;;23.42;;
49123;SDS011;48506;48.202;16.274;2022-12-20T06:28:15;72.03;;;27.88;;
49123;SDS011;48506;48.202;16.274;2022-12-20T06:30:52;73.93;;;25.85;;
49123;SDS011;48506;48.202;16.274;2022-12-20T06:33:19;72.30;;;25.55;;
49123;SDS011;48506;48.202;16.274;2022-12-20T06:35:45;80.88;;;27.90;;
49123;SDS011;48506;48.202;16.274;2022-12-20T06:38:13;77.97;;;25.58;;
49123;SDS011;48506;48.202;16.274;2022-12-20T06:40:39;72.90;;;26.52;;
49123;SDS011;48506;48.202;16.274;2022-12-20T06:43:05;73.55;;;24.85;;
49123;SDS011;48506;48.202;16.274;2022-12-20T06:45:31;76.15;;;27.63;;
49123;SDS011;48506;48.202;16.274;2022-12-20T06:47:57;76.05;;;24.70;;
49123;SDS011;48506;48.202;16.274;2022-12-20T06:50:24;79.53;;;25.40;;
49123;SDS011;48506;48.202;16.274;2022-12-20T06:52:51;72.28;;;26.25;;
49123;SDS011;48506;48.202;16.274;2022-12-20T06:55:17;76.60;;;24.63;;
49123;SDS011;48506;48.202;16.274;2022-12-20T06:57:43;69.40;;;24.23;;
49123;SDS011;48506;48.202;16.274;2022-12-20T07:00:09;69.15;;;27.90;;
49123;SDS011;48506;48.202;16.274;2022-12-20T07:02:37;69.55;;;24.98;;
49123;SDS011;48506;48.202;16.274;2022-12-20T07:05:03;80.38;;;28.58;;
49123;SDS011;48506;48.202;16.274;2022-12-20T07:07:30;85.28;;;26.45;;
49123;SDS011;48506;48.202;16.274;2022-12-20T07:09:56;67.20;;;26.52;;
49123;SDS011;48506;48.202;16.274;2022-12-20T07:12:23;73.70;;;26.88;;
49123;SDS011;48506;48.202;16.274;2022-12-20T07:14:49;70.45;;;26.17;;
49123;SDS011;48506;48.202;16.274;2022-12-20T07:17:16;74.65;;;27.30;;
49123;SDS011;48506;48.202;16.274;2022-12-20T07:19:42;92.72;;;27.92;;
49123;SDS011;48506;48.202;16.274;2022-12-20T07:22:09;76.60;;;26.67;;
49123;SDS011;48506;48.202;16.274;2022-12-20T07:24:35;72.20;;;26.10;;
49123;SDS011;48506;48.202;16.274;2022-12-20T07:27:01;82.30;;;25.55;;
49123;SDS011;48506;48.202;16.274;2022-12-20T07:29:27;84.07;;;25.88;;
49123;SDS011;48506;48.202;16.274;2022-12-20T07:31:53;73.25;;;23.90;;
49123;SDS011;48506;48.202;16.274;2022-12-20T07:34:19;72.28;;;25.33;;
49123;SDS011;48506;48.202;16.274;2022-12-20T07:36:45;78.65;;;27.52;;
49123;SDS011;48506;48.202;16.274;2022-12-20T07:39:11;83.72;;;25.45;;
49123;SDS011;48506;48.202;16.274;2022-12-20T07:41:37;75.25;;;27.17;;
49123;SDS011;48506;48.202;16.274;2022-12-20T07:44:03;72.32;;;26.50;;
49123;SDS011;48506;48.202;16.274;2022-12-20T07:46:30;75.47;;;23.65;;
49123;SDS011;48506;48.202;16.274;2022-12-20T07:48:56;75.28;;;24.95;;
49123;SDS011;48506;48.202;16.274;2022-12-20T07:51:24;78.85;;;24.38;;
49123;SDS011;48506;48.202;16.274;2022-12-20T07:54:08;74.72;;;26.40;;
49123;SDS011;48506;48.202;16.274;2022-12-20T07:56:48;74.13;;;25.95;;
49123;SDS011;48506;48.202;16.274;2022-12-20T07:59:19;85.85;;;26.80;;
49123;SDS011;48506;48.202;16.274;2022-12-20T08:01:50;79.68;;;25.25;;
49123;SDS011;48506;48.202;16.274;2022-12-20T08:04:17;81.30;;;25.60;;
49123;SDS011;48506;48.202;16.274;2022-12-20T08:06:46;73.63;;;27.33;;
49123;SDS011;48506;48.202;16.274;2022-12-20T08:09:13;86.70;;;29.10;;
49123;SDS011;48506;48.202;16.274;2022-12-20T08:11:41;85.05;;;27.20;;
49123;SDS011;48506;48.202;16.274;2022-12-20T08:14:09;82.30;;;29.33;;
49123;SDS011;48506;48.202;16.274;2022-12-20T08:16:36;81.45;;;26.52;;
49123;SDS011;48506;48.202;16.274;2022-12-20T08:19:03;77.43;;;25.33;;
49123;SDS011;48506;48.202;16.274;2022-12-20T08:21:29;82.22;;;26.70;;
49123;SDS011;48506;48.202;16.274;2022-12-20T08:23:55;78.18;;;25.45;;
49123;SDS011;48506;48.202;16.274;2022-12-20T08:26:21;87.60;;;26.63;;
49123;SDS011;48506;48.202;16.274;2022-12-20T08:28:47;88.70;;;27.83;;
49123;SDS011;48506;48.202;16.274;2022-12-20T08:31:13;74.40;;;26.13;;
49123;SDS011;48506;48.202;16.274;2022-12-20T08:33:40;81.38;;;26.23;;
49123;SDS011;48506;48.202;16.274;2022-12-20T08:36:07;85.22;;;25.02;;
49123;SDS011;48506;48.202;16.274;2022-12-20T08:38:35;72.32;;;26.55;;
49123;SDS011;48506;48.202;16.274;2022-12-20T08:41:02;81.00;;;23.00;;
49123;SDS011;48506;48.202;16.274;2022-12-20T08:43:30;72.93;;;24.70;;
49123;SDS011;48506;48.202;16.274;2022-12-20T08:45:57;76.15;;;26.42;;
49123;SDS011;48506;48.202;16.274;2022-12-20T08:48:24;75.72;;;26.75;;
49123;SDS011;48506;48.202;16.274;2022-12-20T08:50:56;61.72;;;24.83;;
49123;SDS011;48506;48.202;16.274;2022-12-20T08:53:26;68.72;;;23.88;;
49123;SDS011;48506;48.202;16.274;2022-12-20T08:55:53;60.47;;;25.27;;
49123;SDS011;48506;48.202;16.274;2022-12-20T08:58:27;66.63;;;24.27;;
49123;SDS011;48506;48.202;16.274;2022-12-20T09:00:53;81.97;;;24.52;;
49123;SDS011;48506;48.202;16.274;2022-12-20T09:03:24;71.88;;;22.63;;
49123;SDS011;48506;48.202;16.274;2022-12-20T09:05:51;65.88;;;23.83;;
49123;SDS011;48506;48.202;16.274;2022-12-20T09:08:17;68.82;;;23.98;;
49123;SDS011;48506;48.202;16.274;2022-12-20T09:10:43;70.10;;;23.15;;
49123;SDS011;48506;48.202;16.274;2022-12-20T09:13:09;73.13;;;23.88;;
49123;SDS011;48506;48.202;16.274;2022-12-20T09:15:36;67.68;;;25.02;;
49123;SDS011;48506;48.202;16.274;2022-12-20T09:18:02;72.75;;;23.08;;
49123;SDS011;48506;48.202;16.274;2022-12-20T09:20:28;64.93;;;25.15;;
49123;SDS011;48506;48.202;16.274;2022-12-20T09:22:54;71.18;;;21.63;;
49123;SDS011;48506;48.202;16.274;2022-12-20T09:25:22;70.30;;;23.48;;
49123;SDS011;48506;48.202;16.274;2022-12-20T09:27:48;77.15;;;22.58;;
49123;SDS011;48506;48.202;16.274;2022-12-20T09:30:14;58.38;;;20.48;;
49123;SDS011;48506;48.202;16.274;2022-12-20T09:32:40;70.88;;;23.17;;
49123;SDS011;48506;48.202;16.274;2022-12-20T09:35:06;57.83;;;21.23;;
49123;SDS011;48506;48.202;16.274;2022-12-20T09:37:33;56.65;;;19.90;;
49123;SDS011;48506;48.202;16.274;2022-12-20T09:39:59;70.50;;;23.08;;
49123;SDS011;48506;48.202;16.274;2022-12-20T09:42:26;64.53;;;22.23;;
49123;SDS011;48506;48.202;16.274;2022-12-20T09:44:57;62.72;;;21.88;;
49123;SDS011;48506;48.202;16.274;2022-12-20T09:47:30;55.58;;;21.02;;
49123;SDS011;48506;48.202;16.274;2022-12-20T09:49:58;66.88;;;20.25;;
49123;SDS011;48506;48.202;16.274;2022-12-20T09:55:08;65.20;;;20.20;;
49123;SDS011;48506;48.202;16.274;2022-12-20T10:00:55;57.47;;;19.23;;
49123;SDS011;48506;48.202;16.274;2022-12-20T10:03:25;68.90;;;21.95;;
49123;SDS011;48506;48.202;16.274;2022-12-20T10:05:57;56.50;;;20.58;;
49123;SDS011;48506;48.202;16.274;2022-12-20T10:16:45;55.35;;;18.05;;
49123;SDS011;48506;48.202;16.274;2022-12-20T10:22:32;57.28;;;18.65;;
49123;SDS011;48506;48.202;16.274;2022-12-20T10:25:20;57.05;;;18.75;;
49123;SDS011;48506;48.202;16.274;2022-12-20T10:27:55;54.95;;;19.02;;
49123;SDS011;48506;48.202;16.274;2022-12-20T10:30:24;51.15;;;17.90;;
49123;SDS011;48506;48.202;16.274;2022-12-20T10:32:53;64.25;;;18.83;;
49123;SDS011;48506;48.202;16.274;2022-12-20T10:35:22;47.90;;;19.63;;
49123;SDS011;48506;48.202;16.274;2022-12-20T10:38:00;51.85;;;17.33;;
49123;SDS011;48506;48.202;16.274;2022-12-20T10:40:35;56.63;;;21.58;;
49123;SDS011;48506;48.202;16.274;2022-12-20T10:43:03;58.92;;;19.48;;
49123;SDS011;48506;48.202;16.274;2022-12-20T10:48:00;58.60;;;20.08;;
49123;SDS011;48506;48.202;16.274;2022-12-20T10:50:28;57.45;;;17.70;;
49123;SDS011;48506;48.202;16.274;2022-12-20T10:55:36;56.20;;;20.63;;
49123;SDS011;48506;48.202;16.274;2022-12-20T10:58:05;52.38;;;18.42;;
49123;SDS011;48506;48.202;16.274;2022-12-20T11:00:40;55.53;;;21.02;;
49123;SDS011;48506;48.202;16.274;2022-12-20T11:03:12;60.53;;;19.95;;
49123;SDS011;48506;48.202;16.274;2022-12-20T11:05:59;49.90;;;20.35;;
49123;SDS011;48506;48.202;16.274;2022-12-20T11:08:30;48.15;;;17.40;;
49123;SDS011;48506;48.202;16.274;2022-12-20T11:11:30;56.45;;;19.58;;
49123;SDS011;48506;48.202;16.274;2022-12-20T11:13:51;51.25;;;17.13;;
49123;SDS011;48506;48.202;16.274;2022-12-20T11:16:34;51.42;;;17.95;;
49123;SDS011;48506;48.202;16.274;2022-12-20T11:21:53;47.88;;;17.05;;
49123;SDS011;48506;48.202;16.274;2022-12-20T11:32:22;50.13;;;17.95;;
49123;SDS011;48506;48.202;16.274;2022-12-20T11:37:30;44.40;;;17.17;;
49123;SDS011;48506;48.202;16.274;2022-12-20T11:40:18;49.20;;;17.52;;
49123;SDS011;48506;48.202;16.274;2022-12-20T11:51:20;53.67;;;16.48;;
49123;SDS011;48506;48.202;16.274;2022-12-20T11:56:37;49.30;;;16.92;;
49123;SDS011;48506;48.202;16.274;2022-12-20T11:59:30;58.05;;;20.48;;
49123;SDS011;48506;48.202;16.274;2022-12-20T12:02:22;52.88;;;18.52;;
49123;SDS011;48506;48.202;16.274;2022-12-20T12:04:58;55.92;;;19.73;;
49123;SDS011;48506;48.202;16.274;2022-12-20T12:07:32;51.22;;;16.23;;
49123;SDS011;48506;48.202;16.274;2022-12-20T12:28:58;46.55;;;17.13;;
49123;SDS011;48506;48.202;16.274;2022-12-20T12:31:37;50.95;;;18.05;;
49123;SDS011;48506;48.202;16.274;2022-12-20T12:44:59;48.53;;;17.60;;
49123;SDS011;48506;48.202;16.274;2022-12-20T12:47:43;53.10;;;18.23;;
49123;SDS011;48506;48.202;16.274;2022-12-20T12:50:43;56.90;;;17.02;;
49123;SDS011;48506;48.202;16.274;2022-12-20T12:55:54;43.67;;;15.18;;
49123;SDS011;48506;48.202;16.274;2022-12-20T13:03:43;51.90;;;16.10;;
49123;SDS011;48506;48.202;16.274;2022-12-20T13:11:35;49.88;;;17.73;;
49123;SDS011;48506;48.202;16.274;2022-12-20T13:16:41;50.42;;;18.67;;
49123;SDS011;48506;48.202;16.274;2022-12-20T13:21:40;56.15;;;18.48;;
49123;SDS011;48506;48.202;16.274;2022-12-20T13:24:44;67.35;;;20.98;;
49123;SDS011;48506;48.202;16.274;2022-12-20T13:27:24;52.75;;;18.67;;
49123;SDS011;48506;48.202;16.274;2022-12-20T13:29:59;52.72;;;20.17;;
49123;SDS011;48506;48.202;16.274;2022-12-20T13:37:52;51.38;;;20.73;;
49123;SDS011;48506;48.202;16.274;2022-12-20T13:40:49;65.85;;;18.95;;
49123;SDS011;48506;48.202;16.274;2022-12-20T13:45:52;53.97;;;18.83;;
49123;SDS011;48506;48.202;16.274;2022-12-20T13:48:38;63.65;;;19.90;;
49123;SDS011;48506;48.202;16.274;2022-12-20T13:51:09;55.42;;;20.55;;
49123;SDS011;48506;48.202;16.274;2022-12-20T13:53:35;55.80;;;18.88;;
49123;SDS011;48506;48.202;16.274;2022-12-20T13:58:50;63.35;;;18.15;;
49123;SDS011;48506;48.202;16.274;2022-12-20T14:01:21;53.15;;;17.52;;
49123;SDS011;48506;48.202;16.274;2022-12-20T14:03:48;50.80;;;18.08;;
49123;SDS011;48506;48.202;16.274;2022-12-20T14:06:17;54.85;;;16.77;;
49123;SDS011;48506;48.202;16.274;2022-12-20T14:08:46;57.70;;;20.05;;
49123;SDS011;48506;48.202;16.274;2022-12-20T14:13:50;48.58;;;19.02;;
49123;SDS011;48506;48.202;16.274;2022-12-20T14:16:18;48.45;;;19.63;;
49123;SDS011;48506;48.202;16.274;2022-12-20T14:18:48;50.38;;;17.90;;
49123;SDS011;48506;48.202;16.274;2022-12-20T14:21:15;54.10;;;21.08;;
49123;SDS011;48506;48.202;16.274;2022-12-20T14:23:44;50.22;;;17.13;;
49123;SDS011;48506;48.202;16.274;2022-12-20T14:26:15;57.72;;;17.23;;
49123;SDS011;48506;48.202;16.274;2022-12-20T14:29:02;41.65;;;15.77;;
49123;SDS011;48506;48.202;16.274;2022-12-20T14:31:37;46.70;;;16.40;;
49123;SDS011;48506;48.202;16.274;2022-12-20T14:36:38;42.10;;;16.67;;
49123;SDS011;48506;48.202;16.274;2022-12-20T14:41:46;45.80;;;15.02;;
49123;SDS011;48506;48.202;16.274;2022-12-20T14:44:19;50.72;;;16.13;;
49123;SDS011;48506;48.202;16.274;2022-12-20T14:46:48;47.13;;;15.80;;
49123;SDS011;48506;48.202;16.274;2022-12-20T14:49:17;37.80;;;14.18;;
49123;SDS011;48506;48.202;16.274;2022-12-20T14:51:46;36.17;;;12.95;;
49123;SDS011;48506;48.202;16.274;2022-12-20T14:54:24;64.30;;;19.05;;
49123;SDS011;48506;48.202;16.274;2022-12-20T14:56:52;44.72;;;18.58;;
49123;SDS011;48506;48.202;16.274;2022-12-20T14:59:23;42.65;;;18.60;;
49123;SDS011;48506;48.202;16.274;2022-12-20T15:01:51;48.10;;;17.80;;
49123;SDS011;48506;48.202;16.274;2022-12-20T15:04:51;51.05;;;15.75;;
49123;SDS011;48506;48.202;16.274;2022-12-20T15:07:29;55.60;;;17.75;;
49123;SDS011;48506;48.202;16.274;2022-12-20T15:09:56;40.90;;;15.57;;
49123;SDS011;48506;48.202;16.274;2022-12-20T15:12:23;53.88;;;16.23;;
49123;SDS011;48506;48.202;16.274;2022-12-20T15:14:49;46.97;;;17.85;;
49123;SDS011;48506;48.202;16.274;2022-12-20T15:17:16;58.83;;;18.88;;
49123;SDS011;48506;48.202;16.274;2022-12-20T15:19:42;48.58;;;14.75;;
49123;SDS011;48506;48.202;16.274;2022-12-20T15:22:18;51.25;;;17.65;;
49123;SDS011;48506;48.202;16.274;2022-12-20T15:24:44;44.28;;;18.10;;
49123;SDS011;48506;48.202;16.274;2022-12-20T15:27:13;46.63;;;17.95;;
49123;SDS011;48506;48.202;16.274;2022-12-20T15:29:39;51.42;;;16.13;;
49123;SDS011;48506;48.202;16.274;2022-12-20T15:32:06;45.88;;;18.27;;
49123;SDS011;48506;48.202;16.274;2022-12-20T15:34:48;58.80;;;20.00;;
49123;SDS011;48506;48.202;16.274;2022-12-20T15:37:14;44.70;;;18.38;;
49123;SDS011;48506;48.202;16.274;2022-12-20T15:39:41;49.13;;;18.13;;
49123;SDS011;48506;48.202;16.274;2022-12-20T15:42:09;53.47;;;17.55;;
49123;SDS011;48506;48.202;16.274;2022-12-20T15:44:40;47.55;;;15.90;;
49123;SDS011;48506;48.202;16.274;2022-12-20T15:47:16;44.67;;;18.85;;
49123;SDS011;48506;48.202;16.274;2022-12-20T15:49:42;42.33;;;16.73;;
49123;SDS011;48506;48.202;16.274;2022-12-20T15:52:09;42.97;;;16.52;;
49123;SDS011;48506;48.202;16.274;2022-12-20T15:54:43;49.92;;;18.38;;
49123;SDS011;48506;48.202;16.274;2022-12-20T15:57:10;51.47;;;18.15;;
49123;SDS011;48506;48.202;16.274;2022-12-20T15:59:38;58.78;;;19.15;;
49123;SDS011;48506;48.202;16.274;2022-12-20T16:02:16;54.15;;;17.55;;
49123;SDS011;48506;48.202;16.274;2022-12-20T16:04:48;50.63;;;16.15;;
49123;SDS011;48506;48.202;16.274;2022-12-20T16:07:14;47.90;;;16.10;;
49123;SDS011;48506;48.202;16.274;2022-12-20T16:09:41;46.83;;;17.55;;
49123;SDS011;48506;48.202;16.274;2022-12-20T16:12:10;40.08;;;15.27;;
49123;SDS011;48506;48.202;16.274;2022-12-20T16:14:58;43.17;;;17.20;;
49123;SDS011;48506;48.202;16.274;2022-12-20T16:17:24;54.10;;;16.88;;
49123;SDS011;48506;48.202;16.274;2022-12-20T16:19:50;44.33;;;16.27;;
49123;SDS011;48506;48.202;16.274;2022-12-20T16:22:19;49.20;;;16.55;;
49123;SDS011;48506;48.202;16.274;2022-12-20T16:24:46;49.90;;;17.75;;